createdAt,value
2023-02-08T00:01:23.906Z,-4.04
2023-02-08T00:03:50.950Z,-4.03
2023-02-08T00:06:18.003Z,-4.15
2023-02-08T00:08:45.403Z,-3.94
2023-02-08T00:11:12.303Z,-3.99
2023-02-08T00:13:42.114Z,-4.04
2023-02-08T00:16:10.187Z,-3.92
2023-02-08T00:18:36.728Z,-4.05
2023-02-08T00:21:07.777Z,-4.21
2023-02-08T00:23:34.194Z,-4.07
2023-02-08T00:26:00.614Z,-4.16
2023-02-08T00:28:27.112Z,-4.12
2023-02-08T00:30:53.626Z,-4.15
2023-02-08T00:33:20.663Z,-4.20
2023-02-08T00:35:47.071Z,-4.20
2023-02-08T00:38:13.484Z,-3.98
2023-02-08T00:40:40.185Z,-3.79
2023-02-08T00:43:06.886Z,-3.75
2023-02-08T00:45:34.545Z,-4.07
2023-02-08T00:48:01.066Z,-3.93
2023-02-08T00:50:28.299Z,-3.80
2023-02-08T00:52:57.813Z,-3.90
2023-02-08T00:55:25.122Z,-4.07
2023-02-08T00:57:51.631Z,-4.02
2023-02-08T01:00:18.571Z,-4.03
2023-02-08T01:02:44.990Z,-3.82
2023-02-08T01:05:11.566Z,-4.02
2023-02-08T01:07:40.075Z,-3.79
2023-02-08T01:10:08.646Z,-4.10
2023-02-08T01:12:35.108Z,-3.97
2023-02-08T01:15:01.679Z,-4.06
2023-02-08T01:17:28.358Z,-4.14
2023-02-08T01:19:54.799Z,-4.33
2023-02-08T01:22:21.301Z,-4.38
2023-02-08T01:24:48.369Z,-4.43
2023-02-08T01:27:14.774Z,-4.12
2023-02-08T01:29:41.352Z,-4.28
2023-02-08T01:32:07.811Z,-4.31
2023-02-08T01:34:34.213Z,-4.55
2023-02-08T01:37:00.638Z,-4.51
2023-02-08T01:39:27.187Z,-4.52
2023-02-08T01:41:54.347Z,-4.58
2023-02-08T01:44:58.190Z,-4.64
2023-02-08T01:47:24.672Z,-4.60
2023-02-08T01:49:51.398Z,-4.61
2023-02-08T01:52:21.391Z,-4.40
2023-02-08T01:54:53.659Z,-4.22
2023-02-08T01:57:22.638Z,-4.39
2023-02-08T01:59:54.164Z,-4.62
2023-02-08T02:02:25.514Z,-4.70
2023-02-08T02:04:53.659Z,-4.63
2023-02-08T02:07:22.176Z,-4.70
2023-02-08T02:09:53.424Z,-4.67
2023-02-08T02:12:21.200Z,-4.63
2023-02-08T02:14:48.393Z,-4.66
2023-02-08T02:17:18.010Z,-4.74
2023-02-08T02:19:52.038Z,-4.89
2023-02-08T02:22:59.694Z,-4.76
2023-02-08T02:26:01.026Z,-4.94
2023-02-08T02:29:08.526Z,-4.91
2023-02-08T02:32:07.004Z,-5.13
2023-02-08T02:34:40.508Z,-5.11
2023-02-08T02:37:16.355Z,-5.16
2023-02-08T02:39:57.613Z,-5.11
2023-02-08T02:42:48.554Z,-5.44
2023-02-08T02:45:23.850Z,-5.18
2023-02-08T02:47:55.884Z,-5.07
2023-02-08T02:50:30.139Z,-5.18
2023-02-08T02:53:02.234Z,-5.08
2023-02-08T02:55:33.523Z,-4.79
2023-02-08T02:58:03.789Z,-4.59
2023-02-08T03:00:32.607Z,-4.69
2023-02-08T03:03:00.031Z,-4.95
2023-02-08T03:05:28.757Z,-4.88
2023-02-08T03:08:15.681Z,-4.87
2023-02-08T03:11:01.275Z,-5.07
2023-02-08T03:13:41.904Z,-4.69
2023-02-08T03:16:17.607Z,-4.93
2023-02-08T03:18:58.953Z,-4.90
2023-02-08T03:21:36.830Z,-4.85
2023-02-08T03:24:15.931Z,-4.89
2023-02-08T03:26:50.147Z,-4.96
2023-02-08T03:29:26.455Z,-4.88
2023-02-08T03:31:59.317Z,-4.74
2023-02-08T03:34:30.956Z,-4.56
2023-02-08T03:37:01.829Z,-4.74
2023-02-08T03:39:31.446Z,-4.83
2023-02-08T03:42:04.978Z,-4.88
2023-02-08T03:44:36.853Z,-4.59
2023-02-08T03:47:11.673Z,-4.74
2023-02-08T03:49:40.257Z,-4.60
2023-02-08T03:52:10.210Z,-4.96
2023-02-08T03:54:42.422Z,-5.02
2023-02-08T03:57:15.278Z,-4.92
2023-02-08T03:59:45.193Z,-4.40
2023-02-08T04:02:16.472Z,-4.83
2023-02-08T04:04:46.374Z,-4.97
2023-02-08T04:07:13.442Z,-4.76
2023-02-08T04:09:39.963Z,-4.90
2023-02-08T04:12:07.335Z,-4.93
2023-02-08T04:14:34.386Z,-4.92
2023-02-08T04:17:01.229Z,-5.04
2023-02-08T04:19:27.729Z,-5.31
2023-02-08T04:21:55.181Z,-5.27
2023-02-08T04:24:21.655Z,-5.28
2023-02-08T04:26:48.144Z,-5.31
2023-02-08T04:29:14.574Z,-5.17
2023-02-08T04:31:41.332Z,-5.03
2023-02-08T04:34:07.976Z,-5.31
2023-02-08T04:36:34.540Z,-5.00
2023-02-08T04:39:01.650Z,-5.07
2023-02-08T04:41:28.097Z,-5.17
2023-02-08T04:43:54.562Z,-5.35
2023-02-08T04:46:21.013Z,-5.15
2023-02-08T04:48:47.619Z,-5.01
2023-02-08T04:51:14.032Z,-5.15
2023-02-08T04:53:40.568Z,-5.25
2023-02-08T04:56:07.852Z,-5.21
2023-02-08T04:58:35.093Z,-5.43
2023-02-08T05:01:01.538Z,-5.26
2023-02-08T05:03:28.038Z,-5.39
2023-02-08T05:05:58.268Z,-5.49
2023-02-08T05:08:24.839Z,-5.18
2023-02-08T05:10:51.419Z,-5.30
2023-02-08T05:13:18.696Z,-5.53
2023-02-08T05:15:45.518Z,-5.10
2023-02-08T05:18:12.053Z,-5.35
2023-02-08T05:20:38.825Z,-5.56
2023-02-08T05:23:05.693Z,-5.76
2023-02-08T05:25:32.284Z,-5.74
2023-02-08T05:27:59.025Z,-5.84
2023-02-08T05:30:26.130Z,-6.10
2023-02-08T05:32:52.688Z,-6.04
2023-02-08T05:35:19.133Z,-5.91
2023-02-08T05:37:45.543Z,-6.12
2023-02-08T05:40:12.565Z,-6.02
2023-02-08T05:42:39.079Z,-6.07
2023-02-08T05:45:06.532Z,-5.71
2023-02-08T05:47:33.768Z,-5.75
2023-02-08T05:50:00.229Z,-6.02
2023-02-08T05:52:26.713Z,-6.10
2023-02-08T05:54:53.204Z,-5.88
2023-02-08T05:57:19.694Z,-5.91
2023-02-08T05:59:46.267Z,-6.07
2023-02-08T06:02:13.501Z,-6.04
2023-02-08T06:04:40.640Z,-6.18
2023-02-08T06:07:08.191Z,-6.14
2023-02-08T06:09:34.679Z,-5.94
2023-02-08T06:12:01.152Z,-6.02
2023-02-08T06:14:27.594Z,-6.07
2023-02-08T06:16:54.248Z,-6.23
2023-02-08T06:19:21.120Z,-6.20
2023-02-08T06:21:48.349Z,-6.24
2023-02-08T06:24:15.913Z,-6.27
2023-02-08T06:26:42.645Z,-6.42
2023-02-08T06:29:09.222Z,-6.29
2023-02-08T06:31:36.261Z,-6.21
2023-02-08T06:34:02.901Z,-6.28
2023-02-08T06:36:29.480Z,-6.53
2023-02-08T06:38:56.749Z,-6.49
2023-02-08T06:41:23.362Z,-6.38
2023-02-08T06:43:49.808Z,-6.39
2023-02-08T06:46:16.342Z,-6.49
2023-02-08T06:48:42.815Z,-6.45
2023-02-08T06:51:09.403Z,-6.44
2023-02-08T06:53:38.884Z,-6.33
2023-02-08T06:56:06.449Z,-6.38
2023-02-08T06:58:32.989Z,-6.43
2023-02-08T07:00:59.465Z,-6.43
2023-02-08T07:03:25.912Z,-6.36
2023-02-08T07:06:04.161Z,-6.41
2023-02-08T07:08:31.945Z,-6.47
2023-02-08T07:10:58.324Z,-6.35
2023-02-08T07:13:26.572Z,-6.27
2023-02-08T07:15:53.018Z,-6.29
2023-02-08T07:18:19.421Z,-6.08
2023-02-08T07:20:45.950Z,-5.98
2023-02-08T07:23:12.490Z,-5.93
2023-02-08T07:25:38.960Z,-5.98
2023-02-08T07:28:05.456Z,-5.90
2023-02-08T07:30:32.664Z,-5.85
2023-02-08T07:32:59.081Z,-5.79
2023-02-08T07:35:25.473Z,-5.72
2023-02-08T07:37:51.957Z,-5.69
2023-02-08T07:40:18.415Z,-5.59
2023-02-08T07:42:44.887Z,-5.50
2023-02-08T07:45:21.992Z,-5.52
2023-02-08T07:47:49.062Z,-5.41
2023-02-08T07:50:16.201Z,-5.31
2023-02-08T07:52:45.181Z,-5.33
2023-02-08T07:55:16.144Z,-5.27
2023-02-08T07:57:42.594Z,-5.31
2023-02-08T08:00:10.434Z,-5.20
2023-02-08T08:02:38.913Z,-5.13
2023-02-08T08:05:06.874Z,-5.04
2023-02-08T08:07:33.275Z,-5.02
2023-02-08T08:09:59.759Z,-5.01
2023-02-08T08:12:26.238Z,-5.03
2023-02-08T08:14:52.828Z,-4.90
2023-02-08T08:17:19.470Z,-4.73
2023-02-08T08:19:45.886Z,-4.65
2023-02-08T08:22:12.924Z,-4.56
2023-02-08T08:24:39.307Z,-4.52
2023-02-08T08:27:06.208Z,-4.65
2023-02-08T08:29:33.651Z,-4.55
2023-02-08T08:32:00.165Z,-4.49
2023-02-08T08:34:29.267Z,-4.37
2023-02-08T08:36:55.774Z,-4.34
2023-02-08T08:39:22.920Z,-4.22
2023-02-08T08:41:49.439Z,-4.25
2023-02-08T08:44:15.941Z,-4.20
2023-02-08T08:46:43.186Z,-3.92
2023-02-08T08:49:09.639Z,-3.90
2023-02-08T08:51:36.672Z,-3.83
2023-02-08T08:54:03.700Z,-3.81
2023-02-08T08:56:31.251Z,-3.79
2023-02-08T08:58:57.652Z,-3.79
2023-02-08T09:01:24.199Z,-3.66
2023-02-08T09:03:50.666Z,-3.58
2023-02-08T09:06:17.151Z,-3.25
2023-02-08T09:08:43.566Z,-3.22
2023-02-08T09:11:12.046Z,-3.19
2023-02-08T09:13:39.677Z,-3.06
2023-02-08T09:16:10.924Z,-2.92
2023-02-08T09:18:37.842Z,-2.95
2023-02-08T09:21:08.941Z,-2.86
2023-02-08T09:23:35.418Z,-2.69
2023-02-08T09:26:02.283Z,-2.60
2023-02-08T09:28:28.714Z,-2.69
2023-02-08T09:30:55.928Z,-2.56
2023-02-08T09:33:22.377Z,-2.37
2023-02-08T09:35:49.688Z,-2.29
2023-02-08T09:38:16.117Z,-2.11
2023-02-08T09:40:49.067Z,-2.22
2023-02-08T09:43:22.183Z,-1.95
2023-02-08T09:46:00.258Z,-2.10
2023-02-08T09:48:33.393Z,-1.86
2023-02-08T09:51:04.961Z,-1.63
2023-02-08T09:53:34.641Z,-1.57
2023-02-08T09:56:06.625Z,-1.63
2023-02-08T09:58:37.033Z,-1.74
2023-02-08T10:01:06.795Z,-1.68
2023-02-08T10:03:37.174Z,-1.54
2023-02-08T10:06:06.572Z,-1.67
2023-02-08T10:08:35.582Z,-1.52
2023-02-08T10:11:19.754Z,-1.32
2023-02-08T10:14:13.357Z,-1.42
2023-02-08T10:16:53.768Z,-1.43
2023-02-08T10:19:41.024Z,-1.63
2023-02-08T10:22:26.264Z,-1.49
2023-02-08T10:25:08.104Z,-1.41
2023-02-08T10:27:45.202Z,-1.28
2023-02-08T10:30:24.581Z,-0.98
2023-02-08T10:32:59.159Z,-0.88
2023-02-08T10:35:31.409Z,-0.63
2023-02-08T10:37:58.797Z,-0.62
2023-02-08T10:40:37.541Z,-0.95
2023-02-08T10:43:19.037Z,-0.83
2023-02-08T10:45:52.505Z,-0.46
2023-02-08T10:48:31.400Z,-0.23
2023-02-08T10:50:58.437Z,-0.12
2023-02-08T10:53:24.913Z,-0.02
2023-02-08T10:55:51.438Z,0.16
2023-02-08T10:58:21.543Z,0.04
2023-02-08T11:00:51.291Z,0.01
2023-02-08T11:03:21.791Z,-0.02
2023-02-08T11:05:48.920Z,0.04
2023-02-08T11:08:19.107Z,0.07
2023-02-08T11:10:57.863Z,0.12
2023-02-08T11:13:27.124Z,0.13
2023-02-08T11:15:57.301Z,-0.33
2023-02-08T11:18:26.223Z,-0.13
2023-02-08T11:20:55.776Z,-0.28
2023-02-08T11:23:26.389Z,-0.31
2023-02-08T11:25:54.102Z,-0.07
2023-02-08T11:28:27.809Z,0.21
2023-02-08T11:31:03.208Z,0.19
2023-02-08T11:33:30.241Z,0.45
2023-02-08T11:36:12.833Z,-0.01
2023-02-08T11:38:45.701Z,0.03
2023-02-08T11:41:20.980Z,0.20
2023-02-08T11:43:57.317Z,-0.18
2023-02-08T11:46:25.839Z,-0.17
2023-02-08T11:48:55.550Z,-0.04
2023-02-08T11:51:28.266Z,0.08
2023-02-08T11:53:56.337Z,0.37
2023-02-08T11:56:24.429Z,0.56
2023-02-08T11:59:19.133Z,0.63
2023-02-08T12:01:48.137Z,0.51
2023-02-08T12:04:16.449Z,0.30
2023-02-08T12:07:13.784Z,0.34
2023-02-08T12:10:09.314Z,0.52
2023-02-08T12:12:48.094Z,0.39
2023-02-08T12:15:26.169Z,0.46
2023-02-08T12:18:13.556Z,0.33
2023-02-08T12:20:41.637Z,0.65
2023-02-08T12:23:33.493Z,0.62
2023-02-08T12:26:09.212Z,1.06
2023-02-08T12:28:58.542Z,1.12
2023-02-08T12:31:40.999Z,1.34
2023-02-08T12:34:16.513Z,0.95
2023-02-08T12:37:21.265Z,1.24
2023-02-08T12:40:24.442Z,1.53
2023-02-08T12:43:04.766Z,1.69
2023-02-08T12:45:50.345Z,1.65
2023-02-08T12:48:31.338Z,1.60
2023-02-08T12:51:07.498Z,1.67
2023-02-08T12:53:40.717Z,1.33
2023-02-08T12:56:15.805Z,1.09
2023-02-08T12:58:46.307Z,1.25
2023-02-08T13:01:18.406Z,1.40
2023-02-08T13:03:51.219Z,1.21
2023-02-08T13:06:23.130Z,1.12
2023-02-08T13:08:58.702Z,0.76
2023-02-08T13:11:32.564Z,1.18
2023-02-08T13:14:05.745Z,1.38
2023-02-08T13:16:38.277Z,1.18
2023-02-08T13:19:25.482Z,0.83
2023-02-08T13:21:53.286Z,0.94
2023-02-08T13:24:28.050Z,0.40
2023-02-08T13:26:54.612Z,0.70
2023-02-08T13:29:28.112Z,1.29
2023-02-08T13:32:00.483Z,1.59
2023-02-08T13:34:35.199Z,1.64
2023-02-08T13:37:08.822Z,1.27
2023-02-08T13:39:41.914Z,1.35
2023-02-08T13:42:28.866Z,1.29
2023-02-08T13:45:00.654Z,1.25
2023-02-08T13:47:30.344Z,1.10
2023-02-08T13:50:00.315Z,1.06
2023-02-08T13:52:48.896Z,1.22
2023-02-08T13:55:45.401Z,1.54
2023-02-08T13:59:02.703Z,1.58
2023-02-08T14:01:31.625Z,1.61
2023-02-08T14:04:35.946Z,1.67
2023-02-08T14:07:07.529Z,1.38
2023-02-08T14:09:46.819Z,1.48
2023-02-08T14:12:23.642Z,1.33
2023-02-08T14:15:21.007Z,1.65
2023-02-08T14:17:50.191Z,1.83
2023-02-08T14:20:21.117Z,2.06
2023-02-08T14:22:51.597Z,2.52
2023-02-08T14:25:21.260Z,1.48
2023-02-08T14:27:53.727Z,1.59
2023-02-08T14:30:26.805Z,1.25
2023-02-08T14:33:11.947Z,0.93
2023-02-08T14:35:53.013Z,1.10
2023-02-08T14:38:49.320Z,1.24
2023-02-08T14:41:49.989Z,1.13
2023-02-08T14:44:55.028Z,1.14
2023-02-08T14:48:02.188Z,0.63
2023-02-08T14:50:33.427Z,1.08
2023-02-08T14:53:07.031Z,0.99
2023-02-08T14:55:41.856Z,1.47
2023-02-08T14:58:14.590Z,1.57
2023-02-08T15:00:44.724Z,1.44
2023-02-08T15:03:18.868Z,1.37
2023-02-08T15:06:11.125Z,1.32
2023-02-08T15:08:40.622Z,1.28
2023-02-08T15:11:20.369Z,1.32
2023-02-08T15:13:53.046Z,1.34
2023-02-08T15:16:19.933Z,0.91
2023-02-08T15:18:48.468Z,0.84
2023-02-08T15:21:18.340Z,0.73
2023-02-08T15:23:58.606Z,0.33
2023-02-08T15:26:25.858Z,0.36
2023-02-08T15:28:52.643Z,0.36
2023-02-08T15:31:23.139Z,0.33
2023-02-08T15:33:52.708Z,0.25
2023-02-08T15:36:25.299Z,0.29
2023-02-08T15:38:52.071Z,-0.10
2023-02-08T15:41:26.097Z,-0.29
2023-02-08T15:44:01.584Z,-0.39
2023-02-08T15:46:29.213Z,-0.40
2023-02-08T15:48:56.536Z,-0.55
2023-02-08T15:51:24.431Z,-0.55
2023-02-08T15:53:54.225Z,-0.76
2023-02-08T15:56:36.801Z,-0.85
2023-02-08T15:59:07.292Z,-0.76
2023-02-08T16:01:33.882Z,-0.93
2023-02-08T16:04:05.236Z,-0.94
2023-02-08T16:06:38.482Z,-1.19
2023-02-08T16:09:16.380Z,-1.11
2023-02-08T16:11:48.429Z,-1.27
2023-02-08T16:14:17.396Z,-1.21
2023-02-08T16:16:46.679Z,-1.38
2023-02-08T16:19:25.287Z,-1.35
2023-02-08T16:21:54.132Z,-1.52
2023-02-08T16:24:23.672Z,-1.44
2023-02-08T16:27:00.246Z,-1.50
2023-02-08T16:29:29.380Z,-1.58
2023-02-08T16:32:02.943Z,-1.63
2023-02-08T16:34:41.153Z,-1.68
2023-02-08T16:37:25.513Z,-1.62
2023-02-08T16:39:54.917Z,-1.65
2023-02-08T16:42:29.000Z,-1.63
2023-02-08T16:45:25.520Z,-1.70
2023-02-08T16:47:53.413Z,-1.71
2023-02-08T16:50:21.876Z,-1.85
2023-02-08T16:52:53.831Z,-1.87
2023-02-08T16:55:22.880Z,-1.82
2023-02-08T16:57:51.277Z,-1.89
2023-02-08T17:00:46.617Z,-1.89
2023-02-08T17:03:13.235Z,-1.91
2023-02-08T17:05:40.850Z,-1.91
2023-02-08T17:08:14.606Z,-1.91
2023-02-08T17:10:42.781Z,-1.94
2023-02-08T17:13:20.306Z,-2.03
2023-02-08T17:15:49.785Z,-1.96
2023-02-08T17:18:16.734Z,-2.08
2023-02-08T17:20:44.002Z,-2.07
2023-02-08T17:23:11.505Z,-1.96
2023-02-08T17:25:38.806Z,-2.09
2023-02-08T17:28:07.632Z,-2.10
2023-02-08T17:30:36.904Z,-2.11
2023-02-08T17:33:18.400Z,-2.13
2023-02-08T17:35:46.652Z,-2.14
2023-02-08T17:38:14.941Z,-2.05
2023-02-08T17:40:42.075Z,-2.15
2023-02-08T17:43:13.212Z,-2.12
2023-02-08T17:45:44.246Z,-2.13
2023-02-08T17:48:12.924Z,-2.22
2023-02-08T17:50:47.381Z,-2.21
2023-02-08T17:53:15.174Z,-2.29
2023-02-08T17:55:43.250Z,-2.21
2023-02-08T17:58:10.630Z,-2.29
2023-02-08T18:00:46.052Z,-2.37
2023-02-08T18:03:12.616Z,-2.30
2023-02-08T18:05:39.138Z,-2.41
2023-02-08T18:08:05.638Z,-2.41
2023-02-08T18:10:32.958Z,-2.37
2023-02-08T18:12:59.588Z,-2.41
2023-02-08T18:15:26.550Z,-2.52
2023-02-08T18:17:53.146Z,-2.45
2023-02-08T18:20:20.246Z,-2.48
2023-02-08T18:22:56.562Z,-2.41
2023-02-08T18:25:23.122Z,-2.54
2023-02-08T18:27:50.509Z,-2.52
2023-02-08T18:30:18.464Z,-2.49
2023-02-08T18:32:45.128Z,-2.51
2023-02-08T18:35:12.079Z,-2.57
2023-02-08T18:37:39.654Z,-2.65
2023-02-08T18:40:07.379Z,-2.63
2023-02-08T18:42:36.076Z,-2.73
2023-02-08T18:45:06.446Z,-2.66
2023-02-08T18:47:34.637Z,-2.62
2023-02-08T18:50:01.533Z,-2.70
2023-02-08T18:52:29.148Z,-2.71
2023-02-08T18:54:56.729Z,-2.86
2023-02-08T18:57:25.143Z,-2.80
2023-02-08T18:59:53.258Z,-2.73
2023-02-08T19:02:22.140Z,-2.72
2023-02-08T19:04:48.930Z,-2.72
2023-02-08T19:07:15.815Z,-2.76
2023-02-08T19:09:43.060Z,-2.82
2023-02-08T19:12:10.044Z,-2.84
2023-02-08T19:14:36.707Z,-2.80
2023-02-08T19:17:03.703Z,-2.77
2023-02-08T19:19:30.750Z,-2.79
2023-02-08T19:21:57.165Z,-2.96
2023-02-08T19:24:23.763Z,-2.92
2023-02-08T19:26:50.396Z,-2.99
2023-02-08T19:29:19.258Z,-3.11
2023-02-08T19:31:45.922Z,-3.07
2023-02-08T19:34:12.961Z,-3.10
2023-02-08T19:36:43.689Z,-3.09
2023-02-08T19:39:13.117Z,-2.97
2023-02-08T19:41:39.724Z,-2.95
2023-02-08T19:44:10.676Z,-3.02
2023-02-08T19:46:38.257Z,-3.01
2023-02-08T19:49:06.011Z,-3.03
2023-02-08T19:51:36.175Z,-2.97
2023-02-08T19:54:06.364Z,-2.98
2023-02-08T19:56:33.379Z,-3.13
2023-02-08T19:58:59.974Z,-3.12
2023-02-08T20:01:26.380Z,-3.13
2023-02-08T20:03:53.630Z,-3.20
2023-02-08T20:06:22.489Z,-3.15
2023-02-08T20:08:49.266Z,-3.16
2023-02-08T20:11:19.282Z,-3.24
2023-02-08T20:13:46.379Z,-3.26
2023-02-08T20:16:12.810Z,-3.26
2023-02-08T20:18:39.427Z,-3.30
2023-02-08T20:21:06.971Z,-3.36
2023-02-08T20:23:34.023Z,-3.21
2023-02-08T20:26:09.164Z,-3.19
2023-02-08T20:28:38.079Z,-3.25
2023-02-08T20:31:08.548Z,-3.30
2023-02-08T20:33:35.298Z,-3.35
2023-02-08T20:36:09.181Z,-3.44
2023-02-08T20:38:36.825Z,-3.36
2023-02-08T20:41:04.739Z,-3.46
2023-02-08T20:43:31.548Z,-3.32
2023-02-08T20:45:58.715Z,-3.36
2023-02-08T20:48:25.453Z,-3.26
2023-02-08T20:50:51.922Z,-3.42
2023-02-08T20:53:18.323Z,-3.34
2023-02-08T20:55:46.206Z,-3.35
2023-02-08T20:58:12.949Z,-3.37
2023-02-08T21:00:42.687Z,-3.45
2023-02-08T21:03:10.581Z,-3.56
2023-02-08T21:05:37.100Z,-3.71
2023-02-08T21:08:06.604Z,-3.71
2023-02-08T21:10:35.536Z,-3.75
2023-02-08T21:13:02.041Z,-3.78
2023-02-08T21:15:28.764Z,-3.86
2023-02-08T21:17:55.464Z,-3.83
2023-02-08T21:20:23.744Z,-3.90
2023-02-08T21:22:50.236Z,-3.88
2023-02-08T21:25:16.930Z,-3.84
2023-02-08T21:27:43.372Z,-3.84
2023-02-08T21:30:10.765Z,-3.82
2023-02-08T21:32:37.212Z,-3.78
2023-02-08T21:35:04.202Z,-3.80
2023-02-08T21:37:33.781Z,-3.86
2023-02-08T21:40:00.190Z,-3.74
2023-02-08T21:42:26.970Z,-3.82
2023-02-08T21:44:53.398Z,-3.71
2023-02-08T21:47:20.003Z,-3.68
2023-02-08T21:50:04.834Z,-3.75
2023-02-08T21:52:49.703Z,-3.80
2023-02-08T21:55:17.031Z,-3.84
2023-02-08T21:57:43.437Z,-3.91
2023-02-08T22:00:11.212Z,-3.98
2023-02-08T22:02:42.690Z,-4.05
2023-02-08T22:05:09.300Z,-4.13
2023-02-08T22:07:44.341Z,-4.23
2023-02-08T22:10:12.302Z,-4.26
2023-02-08T22:12:41.098Z,-4.24
2023-02-08T22:15:08.693Z,-4.43
2023-02-08T22:17:35.164Z,-4.39
2023-02-08T22:20:01.883Z,-4.44
2023-02-08T22:22:28.304Z,1.70
2023-02-08T22:24:54.725Z,3.45
2023-02-08T22:27:21.126Z,0.55
2023-02-08T22:29:48.210Z,-1.61
2023-02-08T22:32:16.213Z,-2.83
2023-02-08T22:34:43.263Z,-3.35
2023-02-08T22:37:09.830Z,-3.56
2023-02-08T22:39:36.458Z,-4.18
2023-02-08T22:42:07.405Z,-4.02
2023-02-08T22:44:34.049Z,-4.12
2023-02-08T22:47:01.228Z,-4.33
2023-02-08T22:49:27.833Z,-4.37
2023-02-08T22:51:54.423Z,-4.72
2023-02-08T22:54:20.844Z,-4.93
2023-02-08T22:56:47.212Z,-4.89
2023-02-08T22:59:13.654Z,-4.64
2023-02-08T23:01:40.038Z,-4.74
2023-02-08T23:04:07.146Z,-4.90
2023-02-08T23:06:34.813Z,-4.88
2023-02-08T23:09:02.298Z,-5.05
2023-02-08T23:11:28.855Z,-5.08
2023-02-08T23:13:55.442Z,-5.32
2023-02-08T23:16:22.345Z,-5.45
2023-02-08T23:18:48.816Z,-5.82
2023-02-08T23:21:17.910Z,-6.09
2023-02-08T23:23:45.550Z,-6.06
2023-02-08T23:26:14.848Z,-6.10
2023-02-08T23:28:41.614Z,-6.35
2023-02-08T23:31:10.536Z,-6.38
2023-02-08T23:33:37.452Z,-6.06
2023-02-08T23:36:05.421Z,-5.97
2023-02-08T23:38:32.464Z,-5.92
2023-02-08T23:41:02.881Z,-5.71
2023-02-08T23:43:29.336Z,-5.73
2023-02-08T23:45:55.751Z,-5.58
2023-02-08T23:48:22.119Z,-5.47
2023-02-08T23:50:56.587Z,-5.65
2023-02-08T23:53:25.952Z,-5.70
2023-02-08T23:56:04.024Z,-5.33
2023-02-08T23:58:30.408Z,-5.71
